Time;durP1;ratioP1;P1;durP2;ratioP2;P2;SDS_P1;SDS_P2;PMS_P1;PMS_P2;Temp;Humidity;BMP_temperature;BMP_pressure;BME280_temperature;BME280_humidity;BME280_pressure;Samples;Min_cycle;Max_cycle;Signal;HPM_P1;HPM_P2
2022/08/14 00:00:26;;;;;;;2.30;1.85;;;;;;;17.26;54.45;95544.41;5007965;28;24985;-69
2022/08/14 00:02:54;;;;;;;2.30;1.63;;;;;;;17.32;54.57;95543.84;5006645;28;24446;-71
2022/08/14 00:05:22;;;;;;;3.90;2.22;;;;;;;17.39;54.13;95542.28;5009477;28;24810;-73
2022/08/14 00:07:50;;;;;;;2.05;1.80;;;;;;;17.40;53.68;95539.53;5001092;28;25041;-73
2022/08/14 00:10:23;;;;;;;5.50;1.80;;;;;;;17.41;53.47;95530.69;5008687;28;24510;-73
2022/08/14 00:12:52;;;;;;;1.95;1.30;;;;;;;17.45;53.20;95530.41;5010105;28;24511;-73
2022/08/14 00:15:21;;;;;;;3.13;1.83;;;;;;;17.47;53.39;95520.63;5010210;28;24515;-73
2022/08/14 00:17:49;;;;;;;1.88;1.60;;;;;;;17.51;53.12;95522.81;5010516;28;24448;-73
2022/08/14 00:20:19;;;;;;;2.22;1.60;;;;;;;17.43;53.55;95522.72;5010477;28;24962;-72
2022/08/14 00:22:45;;;;;;;3.70;1.58;;;;;;;17.29;54.06;95512.72;5008805;28;25075;-71
2022/08/14 00:25:12;;;;;;;3.50;1.60;;;;;;;17.25;53.95;95517.41;5003083;28;24436;-72
2022/08/14 00:27:39;;;;;;;1.90;1.67;;;;;;;17.22;54.71;95509.84;5010663;28;24540;-72
2022/08/14 00:30:07;;;;;;;3.53;1.80;;;;;;;17.00;55.66;95511.00;5010211;28;24459;-72
2022/08/14 00:32:34;;;;;;;4.50;1.95;;;;;;;16.78;56.79;95498.25;5003938;28;24440;-73
2022/08/14 00:35:01;;;;;;;1.92;1.70;;;;;;;16.63;57.11;95501.28;5004811;28;25015;-72
2022/08/14 00:37:28;;;;;;;2.40;1.98;;;;;;;16.68;56.64;95499.06;5010498;28;24592;-72
2022/08/14 00:39:55;;;;;;;6.95;2.28;;;;;;;16.64;56.97;95497.69;5008171;28;24433;-69
2022/08/14 00:42:22;;;;;;;2.45;1.90;;;;;;;16.49;57.51;95499.09;5010759;28;24467;-70
2022/08/14 00:44:50;;;;;;;2.88;2.22;;;;;;;16.33;58.04;95506.66;5007585;28;24440;-69
2022/08/14 00:47:18;;;;;;;5.18;2.65;;;;;;;16.00;59.44;95500.88;5005139;28;24440;-69
2022/08/14 00:49:45;;;;;;;2.97;2.08;;;;;;;15.92;59.95;95506.78;5001896;28;24830;-70
2022/08/14 00:52:12;;;;;;;3.27;2.07;;;;;;;15.93;59.84;95494.53;5005152;28;24487;-71
2022/08/14 00:54:41;;;;;;;3.08;2.13;;;;;;;16.01;59.42;95486.03;5007805;28;24444;-70
2022/08/14 00:59:52;;;;;;;3.57;2.50;;;;;;;16.06;59.99;95492.50;5001081;28;24878;-71
2022/08/14 01:02:23;;;;;;;2.20;1.98;;;;;;;15.92;60.63;95492.91;5005426;28;24432;-69
2022/08/14 01:04:51;;;;;;;2.72;2.08;;;;;;;15.97;60.42;95496.75;5002630;28;25036;-70
2022/08/14 01:07:19;;;;;;;3.63;2.22;;;;;;;15.96;60.25;95479.44;5009337;28;24444;-69
2022/08/14 01:09:50;;;;;;;6.45;3.22;;;;;;;15.99;60.21;95488.78;5007087;28;24465;-71
2022/08/14 01:12:17;;;;;;;5.43;2.50;;;;;;;15.86;61.04;95483.81;5005351;28;24625;-71
2022/08/14 01:14:44;;;;;;;4.03;2.67;;;;;;;15.87;60.83;95488.09;5007715;28;24564;-70
2022/08/14 01:17:11;;;;;;;7.10;2.50;;;;;;;15.92;60.71;95479.84;5009894;28;24448;-70
2022/08/14 01:22:23;;;;;;;4.80;2.60;;;;;;;16.11;60.08;95466.78;5005495;28;24443;-70
2022/08/14 01:24:50;;;;;;;5.18;2.78;;;;;;;15.85;61.01;95473.50;5007812;28;24487;-70
2022/08/14 01:27:18;;;;;;;5.38;3.05;;;;;;;15.64;62.34;95470.97;4998237;28;24445;-70
2022/08/14 01:29:45;;;;;;;2.95;2.40;;;;;;;15.63;61.98;95470.13;5008231;28;24484;-69
2022/08/14 01:32:12;;;;;;;2.95;2.50;;;;;;;15.68;61.88;95464.53;4999424;28;24437;-70
2022/08/14 01:34:39;;;;;;;3.75;2.70;;;;;;;15.68;61.56;95472.38;5008189;28;24439;-69
2022/08/14 01:37:06;;;;;;;3.97;2.60;;;;;;;15.66;61.77;95466.47;5005890;28;24440;-70
2022/08/14 01:39:35;;;;;;;5.07;2.38;;;;;;;15.68;61.86;95472.38;5006097;28;24531;-70
2022/08/14 01:42:01;;;;;;;4.40;2.40;;;;;;;15.75;61.45;95470.06;4994408;28;24535;-69
2022/08/14 01:44:30;;;;;;;2.50;2.00;;;;;;;15.80;61.08;95466.09;5000057;28;24433;-70
2022/08/14 01:46:57;;;;;;;4.28;1.83;;;;;;;15.82;60.58;95460.72;5006156;28;24532;-70
2022/08/14 01:49:25;;;;;;;2.25;1.65;;;;;;;15.82;60.48;95463.34;5008665;28;24456;-71
2022/08/14 01:51:53;;;;;;;2.03;1.65;;;;;;;15.83;60.32;95462.38;5008908;28;24496;-72
2022/08/14 01:54:21;;;;;;;4.90;1.80;;;;;;;15.88;60.14;95460.19;5012484;28;24454;-73
2022/08/14 01:56:51;;;;;;;1.67;1.50;;;;;;;15.88;60.16;95454.97;5015328;28;24539;-71
2022/08/14 01:59:22;;;;;;;2.03;1.80;;;;;;;15.85;59.81;95453.44;5012581;28;24428;-73
2022/08/14 02:01:51;;;;;;;1.90;1.75;;;;;;;15.85;60.11;95450.81;5014170;28;24499;-72
2022/08/14 02:04:19;;;;;;;2.13;1.80;;;;;;;15.82;59.89;95452.88;5016111;28;24852;-72
2022/08/14 02:06:46;;;;;;;1.90;1.70;;;;;;;15.91;59.80;95445.06;5013837;28;24491;-72
2022/08/14 02:09:12;;;;;;;3.22;2.10;;;;;;;15.79;60.26;95440.09;5015187;28;24452;-72
2022/08/14 02:11:39;;;;;;;2.80;1.90;;;;;;;15.72;59.97;95448.50;5015934;28;24440;-72
2022/08/14 02:14:09;;;;;;;3.35;1.92;;;;;;;15.46;61.20;95445.53;5015668;28;24664;-72
2022/08/14 02:16:39;;;;;;;2.20;2.00;;;;;;;15.36;61.30;95441.25;5010870;28;24444;-72
2022/08/14 02:19:08;;;;;;;2.75;1.98;;;;;;;15.26;61.45;95430.78;5015523;28;24464;-72
2022/08/14 02:21:35;;;;;;;2.38;2.17;;;;;;;15.29;61.76;95419.25;5010563;28;24432;-72
2022/08/14 02:24:04;;;;;;;4.13;2.22;;;;;;;14.98;63.19;95421.88;5012741;28;24491;-72
2022/08/14 02:26:32;;;;;;;2.35;2.15;;;;;;;14.89;63.61;95420.91;5012502;28;24444;-71
2022/08/14 02:29:03;;;;;;;4.47;2.88;;;;;;;14.84;64.40;95420.47;5004465;28;24452;-72
2022/08/14 02:31:33;;;;;;;2.10;1.83;;;;;;;14.86;64.20;95423.75;5015549;28;24845;-72
2022/08/14 02:34:00;;;;;;;2.83;2.20;;;;;;;14.90;64.00;95409.50;5011270;28;24492;-71
2022/08/14 02:36:27;;;;;;;3.15;2.40;;;;;;;14.89;64.15;95412.25;5013374;28;24988;-72
2022/08/14 02:38:53;;;;;;;4.53;2.60;;;;;;;14.92;64.29;95407.59;5012319;28;24826;-73
2022/08/14 02:41:20;;;;;;;4.43;2.60;;;;;;;15.00;63.66;95409.56;5012864;28;25403;-72
2022/08/14 02:43:46;;;;;;;4.47;2.55;;;;;;;15.08;63.45;95409.72;5009112;28;24444;-71
2022/08/14 02:46:15;;;;;;;5.43;2.83;;;;;;;15.07;63.73;95404.63;5013659;28;24502;-71
2022/08/14 02:48:43;;;;;;;4.18;2.60;;;;;;;15.02;64.04;95405.03;5008301;28;25035;-71
2022/08/14 02:51:13;;;;;;;6.32;3.08;;;;;;;15.01;63.89;95401.59;5014178;28;24460;-71
2022/08/14 02:53:45;;;;;;;3.38;2.60;;;;;;;15.00;63.98;95391.28;5007522;28;24440;-72
2022/08/14 02:56:15;;;;;;;5.57;3.00;;;;;;;15.00;64.06;95388.69;5007071;28;24520;-73
2022/08/14 02:58:47;;;;;;;7.13;2.90;;;;;;;14.97;64.31;95388.94;5013592;28;21382;-72
2022/08/14 03:01:15;;;;;;;4.65;2.75;;;;;;;14.86;64.72;95394.25;5008620;28;24435;-73
2022/08/14 03:03:43;;;;;;;5.30;2.60;;;;;;;14.86;65.05;95395.09;5014958;28;24519;-71
2022/08/14 03:06:11;;;;;;;3.53;2.90;;;;;;;14.93;64.67;95392.78;5002895;28;24841;-71
2022/08/14 03:08:39;;;;;;;5.13;2.70;;;;;;;14.91;64.95;95385.09;5012258;28;25001;-73
2022/08/14 03:11:13;;;;;;;2.58;2.28;;;;;;;14.89;64.63;95389.59;5011012;28;24459;-73
2022/08/14 03:13:41;;;;;;;3.15;2.28;;;;;;;14.56;66.34;95384.66;5010613;28;24440;-73
2022/08/14 03:16:13;;;;;;;8.17;2.67;;;;;;;14.45;66.58;95382.94;5009264;28;24815;-71
2022/08/14 03:18:42;;;;;;;3.23;2.13;;;;;;;14.48;66.53;95380.06;5008875;28;24535;-72
2022/08/14 03:21:12;;;;;;;2.73;2.23;;;;;;;14.42;66.75;95377.97;5011832;28;24899;-72
2022/08/14 03:23:39;;;;;;;4.82;2.35;;;;;;;14.44;66.33;95369.09;5010615;28;24531;-73
2022/08/14 03:26:07;;;;;;;3.55;2.53;;;;;;;14.54;65.60;95366.56;5002119;28;24447;-71
2022/08/14 03:28:34;;;;;;;4.45;2.10;;;;;;;14.49;66.00;95360.88;5012010;28;24495;-71
2022/08/14 03:31:01;;;;;;;2.47;2.28;;;;;;;14.29;66.82;95360.78;5011381;28;24530;-71
2022/08/14 03:33:28;;;;;;;2.95;2.53;;;;;;;13.98;68.61;95362.53;5011931;28;24532;-71
2022/08/14 03:35:54;;;;;;;4.22;2.35;;;;;;;13.93;68.99;95356.84;5008624;28;24556;-72
2022/08/14 03:38:22;;;;;;;3.95;2.15;;;;;;;13.94;68.45;95357.69;5011539;28;24448;-72
2022/08/14 03:40:49;;;;;;;2.58;2.00;;;;;;;14.08;67.34;95359.16;5011462;28;24433;-70
2022/08/14 03:43:16;;;;;;;3.38;2.10;;;;;;;13.95;68.33;95361.97;5011823;28;24966;-73
2022/08/14 03:45:43;;;;;;;3.40;2.30;;;;;;;13.81;68.98;95368.28;5008830;28;24850;-73
2022/08/14 03:48:17;;;;;;;4.00;2.13;;;;;;;13.79;68.64;95373.63;5011529;28;24432;-72
2022/08/14 03:50:44;;;;;;;3.13;2.10;;;;;;;13.76;69.17;95362.66;5008538;28;24448;-72
2022/08/14 03:53:12;;;;;;;3.28;2.40;;;;;;;13.80;68.43;95367.47;5011450;28;24552;-72
2022/08/14 03:55:40;;;;;;;3.80;2.10;;;;;;;13.87;68.11;95364.34;5001447;28;24455;-71
2022/08/14 03:58:07;;;;;;;2.80;2.40;;;;;;;13.78;68.58;95361.53;5009078;28;24443;-72
2022/08/14 04:00:34;;;;;;;2.22;2.03;;;;;;;13.75;69.24;95366.19;5010646;28;24440;-71
2022/08/14 04:03:01;;;;;;;3.25;2.00;;;;;;;13.77;69.14;95357.31;5011242;28;24486;-71
2022/08/14 04:05:27;;;;;;;3.47;2.35;;;;;;;13.97;68.30;95347.00;5011192;28;24486;-71
2022/08/14 04:07:54;;;;;;;3.90;2.65;;;;;;;13.93;68.92;95340.41;5010344;28;24440;-71
2022/08/14 04:10:20;;;;;;;3.17;2.47;;;;;;;13.93;68.83;95345.63;5009843;28;25067;-70
2022/08/14 04:12:48;;;;;;;2.78;2.22;;;;;;;13.69;70.31;95346.69;5005274;28;24428;-72
2022/08/14 04:15:15;;;;;;;3.10;2.00;;;;;;;13.61;70.61;95336.09;5011335;28;24487;-71
2022/08/14 04:17:42;;;;;;;4.07;2.35;;;;;;;13.63;70.58;95339.38;5009054;28;24448;-72
2022/08/14 04:20:09;;;;;;;3.10;2.50;;;;;;;13.68;69.92;95336.41;5005339;28;24561;-73
2022/08/14 04:22:36;;;;;;;5.13;2.17;;;;;;;13.62;70.67;95336.91;5006099;28;24440;-70
2022/08/14 04:25:03;;;;;;;2.80;2.37;;;;;;;13.61;70.95;95330.03;5010644;28;25051;-71
2022/08/14 04:27:29;;;;;;;4.50;2.30;;;;;;;13.69;70.67;95341.50;5010160;28;24455;-72
2022/08/14 04:29:57;;;;;;;3.55;2.30;;;;;;;13.74;70.69;95348.91;5009749;28;24455;-71
2022/08/14 04:32:26;;;;;;;2.90;2.55;;;;;;;13.81;70.51;95344.84;5006906;28;24465;-71
2022/08/14 04:34:52;;;;;;;3.47;2.23;;;;;;;13.91;70.66;95350.97;5009745;28;24436;-72
2022/08/14 04:45:39;;;;;;;2.75;2.50;;;;;;;14.24;68.91;95346.50;5010082;28;24846;-72
2022/08/14 04:48:13;;;;;;;2.90;2.30;;;;;;;14.32;68.85;95343.25;5010352;28;24538;-73
2022/08/14 04:50:41;;;;;;;2.47;2.00;;;;;;;14.45;68.68;95346.47;5009714;28;24459;-72
2022/08/14 04:53:09;;;;;;;2.25;2.05;;;;;;;14.56;68.86;95351.63;5010353;28;24478;-72
2022/08/14 04:55:36;;;;;;;2.08;1.88;;;;;;;14.67;68.29;95353.31;5007292;28;24518;-72
2022/08/14 04:58:04;;;;;;;3.33;2.38;;;;;;;14.76;67.19;95349.94;5005318;28;24495;-71
2022/08/14 05:00:31;;;;;;;3.10;1.90;;;;;;;14.81;66.88;95367.78;5004656;28;24436;-73
2022/08/14 05:03:02;;;;;;;2.50;2.30;;;;;;;14.83;66.54;95358.88;5008032;28;24555;-71
2022/08/14 05:05:28;;;;;;;2.70;2.13;;;;;;;14.87;66.59;95359.41;5006418;28;25027;-72
2022/08/14 05:07:55;;;;;;;2.30;2.03;;;;;;;14.99;66.44;95351.34;5004136;28;24851;-72
2022/08/14 05:10:24;;;;;;;3.65;2.28;;;;;;;15.13;65.91;95346.69;5001309;28;24800;-72
2022/08/14 05:12:51;;;;;;;2.60;2.00;;;;;;;15.32;66.88;95346.75;5010298;28;24498;-71
2022/08/14 05:15:20;;;;;;;3.13;2.55;;;;;;;15.74;67.30;95338.69;5007559;28;24540;-72
2022/08/14 05:17:47;;;;;;;6.23;2.43;;;;;;;15.52;66.44;95337.16;5007635;28;24531;-72
2022/08/14 05:20:15;;;;;;;2.67;2.47;;;;;;;15.14;69.18;95343.16;5009949;28;24542;-71
2022/08/14 05:22:42;;;;;;;6.20;2.80;;;;;;;15.03;69.63;95349.31;5007315;28;24535;-72
2022/08/14 05:25:08;;;;;;;3.53;2.60;;;;;;;14.95;69.92;95339.53;5013971;28;24493;-71
2022/08/14 05:27:35;;;;;;;3.83;2.75;;;;;;;15.05;70.06;95341.34;5012304;28;24436;-72
2022/08/14 05:30:04;;;;;;;5.33;2.80;;;;;;;15.37;70.45;95338.50;5000804;28;24530;-72
2022/08/14 05:32:30;;;;;;;6.28;2.67;;;;;;;15.46;69.21;95333.31;5000555;28;24447;-71
2022/08/14 05:34:58;;;;;;;6.38;2.70;;;;;;;15.61;67.88;95330.28;5006572;28;24996;-72
2022/08/14 05:37:28;;;;;;;3.90;2.78;;;;;;;15.44;68.45;95324.78;5009191;28;24562;-72
2022/08/14 05:39:55;;;;;;;3.10;2.80;;;;;;;15.40;70.07;95317.38;5006597;28;24497;-72
2022/08/14 05:42:21;;;;;;;4.13;2.50;;;;;;;15.38;69.19;95324.50;5014017;28;24436;-72
2022/08/14 05:44:48;;;;;;;3.05;2.63;;;;;;;15.51;66.84;95332.06;5009198;28;24583;-72
2022/08/14 05:47:14;;;;;;;3.25;2.67;;;;;;;15.51;66.09;95330.28;5008709;28;25007;-72
2022/08/14 05:49:41;;;;;;;2.63;2.42;;;;;;;15.60;65.61;95326.00;5007439;28;24495;-71
2022/08/14 05:52:07;;;;;;;3.30;2.55;;;;;;;15.55;65.36;95323.81;5006487;28;24452;-71
2022/08/14 05:54:35;;;;;;;2.80;2.23;;;;;;;15.57;65.48;95328.91;5008065;28;25025;-71
2022/08/14 05:57:01;;;;;;;2.63;2.42;;;;;;;15.70;64.95;95324.25;5007157;28;24440;-73
2022/08/14 05:59:28;;;;;;;3.50;2.53;;;;;;;15.83;64.41;95318.75;5009322;28;24435;-72
2022/08/14 06:01:54;;;;;;;3.17;2.40;;;;;;;15.79;64.55;95315.59;5008772;28;24435;-71
2022/08/14 06:04:21;;;;;;;2.55;2.35;;;;;;;15.93;64.64;95311.72;5008980;28;24444;-71
2022/08/14 06:06:47;;;;;;;2.45;2.25;;;;;;;16.20;63.78;95313.59;5008799;28;24451;-73
2022/08/14 06:09:14;;;;;;;2.30;2.10;;;;;;;16.49;63.13;95321.34;5008704;28;24440;-72
2022/08/14 06:11:41;;;;;;;3.35;2.38;;;;;;;16.77;61.79;95310.94;5008402;28;24853;-71
2022/08/14 06:14:09;;;;;;;4.90;2.60;;;;;;;16.92;60.24;95307.69;5009020;28;25326;-71
2022/08/14 06:16:36;;;;;;;3.70;2.47;;;;;;;17.10;60.86;95305.09;5008849;28;24448;-71
2022/08/14 06:19:02;;;;;;;4.35;2.63;;;;;;;17.11;59.75;95303.31;5004577;28;24483;-71
2022/08/14 06:21:28;;;;;;;2.50;2.28;;;;;;;17.10;60.06;95299.06;5014301;28;24427;-73
2022/08/14 06:23:55;;;;;;;3.07;2.50;;;;;;;16.90;60.40;95301.75;5009464;28;24960;-71
2022/08/14 06:26:21;;;;;;;4.50;2.50;;;;;;;16.72;61.10;95294.81;5008553;28;24453;-71
2022/08/14 06:28:49;;;;;;;3.17;2.80;;;;;;;16.79;61.31;95296.72;5007419;28;24451;-72
2022/08/14 06:31:16;;;;;;;4.45;2.40;;;;;;;16.86;61.15;95294.38;5005073;28;24452;-71
2022/08/14 06:33:43;;;;;;;3.50;2.27;;;;;;;17.20;60.04;95288.50;5001220;28;25147;-73
2022/08/14 06:36:09;;;;;;;4.07;2.40;;;;;;;17.62;58.63;95281.69;5008917;28;24440;-71
2022/08/14 06:38:36;;;;;;;5.72;2.53;;;;;;;18.02;58.28;95274.31;5005173;28;24451;-72
2022/08/14 06:41:03;;;;;;;3.55;2.47;;;;;;;18.31;57.06;95271.38;5011671;28;24532;-71
2022/08/14 06:43:29;;;;;;;2.70;2.37;;;;;;;18.56;55.38;95262.66;5012176;28;24476;-71
2022/08/14 06:45:57;;;;;;;3.13;2.40;;;;;;;18.89;56.24;95260.19;5011772;28;24448;-72
2022/08/14 06:48:24;;;;;;;2.22;2.03;;;;;;;19.27;54.85;95263.19;5008848;28;24443;-72
2022/08/14 06:50:52;;;;;;;3.28;2.30;;;;;;;19.50;54.66;95258.94;5009044;28;24460;-71
2022/08/14 06:53:19;;;;;;;3.25;2.15;;;;;;;19.77;54.07;95255.22;5012728;28;24527;-70
2022/08/14 06:55:47;;;;;;;2.42;2.22;;;;;;;20.02;52.31;95256.03;5001878;28;24798;-70
2022/08/14 06:58:15;;;;;;;5.20;2.17;;;;;;;20.30;50.99;95238.03;4996536;28;24792;-69
2022/08/14 07:05:44;;;;;;;3.38;2.00;;;;;;;20.50;52.43;95232.41;5009527;28;24992;-70
2022/08/14 07:06:16;;;;;;;3.38;2.10;;;;;;;20.89;50.44;95235.03;5006954;28;24850;-70
2022/08/14 07:08:44;;;;;;;2.67;2.20;;;;;;;20.66;50.26;95236.78;5009681;28;24443;-70
2022/08/14 07:11:11;;;;;;;2.30;2.10;;;;;;;20.52;50.69;95243.59;5011422;28;24513;-69
2022/08/14 07:13:38;;;;;;;3.95;2.10;;;;;;;20.28;51.21;95244.44;5020143;28;24444;-69
2022/08/14 07:16:05;;;;;;;6.93;2.58;;;;;;;20.08;51.81;95243.19;5008727;28;24439;-74
2022/08/14 07:18:34;;;;;;;3.13;2.40;;;;;;;19.99;51.75;95239.75;5011472;28;24460;-73
2022/08/14 07:21:03;;;;;;;5.93;2.10;;;;;;;20.46;51.54;95246.84;5012216;28;24444;-73
2022/08/14 07:23:30;;;;;;;4.40;2.45;;;;;;;20.60;51.16;95246.16;5007726;28;24440;-74
2022/08/14 07:25:58;;;;;;;2.80;2.17;;;;;;;20.79;50.88;95256.28;5013166;28;24499;-73
2022/08/14 07:28:26;;;;;;;3.22;2.30;;;;;;;21.11;49.55;95261.56;5007801;28;24826;-73
2022/08/14 07:30:56;;;;;;;5.43;2.13;;;;;;;21.14;49.67;95255.97;5009389;28;24498;-67
2022/08/14 07:33:24;;;;;;;3.90;2.17;;;;;;;21.28;48.79;95260.44;5009719;28;24471;-71
2022/08/14 07:35:53;;;;;;;4.03;2.22;;;;;;;21.49;48.21;95250.13;5009994;28;24444;-72
2022/08/14 07:38:21;;;;;;;2.72;1.90;;;;;;;21.65;47.29;95251.00;5007674;28;24478;-70
2022/08/14 07:40:49;;;;;;;2.45;1.88;;;;;;;22.39;45.36;95241.41;5010275;28;24997;-72
2022/08/14 07:43:15;;;;;;;2.53;1.80;;;;;;;23.00;44.42;95245.66;5010407;28;24436;-71
2022/08/14 07:45:42;;;;;;;2.35;1.85;;;;;;;23.26;42.10;95245.13;5009369;28;25004;-72
2022/08/14 07:48:09;;;;;;;3.50;1.70;;;;;;;23.76;41.85;95246.84;5022308;28;24444;-71
2022/08/14 07:50:38;;;;;;;3.15;1.60;;;;;;;24.19;41.64;95243.31;5011145;28;24539;-72
2022/08/14 07:53:06;;;;;;;1.97;1.67;;;;;;;24.63;39.41;95245.66;5001001;28;24480;-70
2022/08/14 07:55:33;;;;;;;1.42;1.30;;;;;;;25.25;37.51;95257.09;5010209;28;24519;-72
2022/08/14 07:58:00;;;;;;;2.30;1.50;;;;;;;25.11;38.24;95256.28;5034158;23;24849;-71
2022/08/14 08:00:27;;;;;;;1.93;1.50;;;;;;;25.16;36.74;95251.19;5007862;28;24444;-71
2022/08/14 08:02:55;;;;;;;2.00;1.52;;;;;;;25.54;36.70;95254.13;5000076;28;25129;-71
2022/08/14 08:05:23;;;;;;;1.50;1.40;;;;;;;25.58;36.55;95258.00;5009310;28;24872;-71
2022/08/14 08:07:51;;;;;;;3.73;1.87;;;;;;;25.76;36.22;95246.78;5011756;28;24439;-71
2022/08/14 08:10:33;;;;;;;3.60;1.67;;;;;;;26.13;34.89;95246.44;5011745;28;24432;-71
2022/08/14 08:13:01;;;;;;;3.88;1.60;;;;;;;26.27;35.14;95250.69;5004596;28;24467;-71
2022/08/14 08:15:30;;;;;;;2.42;1.75;;;;;;;26.26;35.16;95247.22;5011663;28;24432;-72
2022/08/14 08:17:56;;;;;;;2.92;1.48;;;;;;;26.44;33.81;95240.44;5003688;28;24440;-71
2022/08/14 08:20:25;;;;;;;2.30;1.45;;;;;;;26.92;33.35;95243.63;5011500;28;24439;-70
2022/08/14 08:22:54;;;;;;;2.80;1.48;;;;;;;26.81;33.00;95249.59;5011584;28;24771;-71
2022/08/14 08:25:22;;;;;;;1.90;1.42;;;;;;;26.62;33.07;95251.25;5011282;28;24873;-71
2022/08/14 08:28:00;;;;;;;2.38;1.50;;;;;;;26.68;33.25;95255.75;5010926;28;24965;-70
2022/08/14 08:30:27;;;;;;;2.40;1.65;;;;;;;26.88;33.23;95260.97;5011098;28;24444;-71
2022/08/14 08:32:56;;;;;;;1.77;1.45;;;;;;;26.90;32.79;95253.63;5011397;28;24448;-70
2022/08/14 08:35:24;;;;;;;3.22;1.60;;;;;;;26.88;32.40;95246.88;5011177;28;24775;-72
2022/08/14 08:37:52;;;;;;;2.70;1.55;;;;;;;27.01;31.93;95237.03;5008037;28;24445;-72
2022/08/14 08:40:24;;;;;;;2.03;1.58;;;;;;;26.87;32.71;95230.13;5010956;28;24424;-72
2022/08/14 08:42:51;;;;;;;5.60;1.60;;;;;;;26.67;32.45;95237.38;5009600;28;25006;-72
2022/08/14 08:45:19;;;;;;;1.77;1.48;;;;;;;26.90;33.03;95227.06;5009596;28;24897;-71
2022/08/14 08:47:46;;;;;;;2.00;1.30;;;;;;;27.01;33.20;95228.25;5022367;28;24499;-72
2022/08/14 08:50:19;;;;;;;7.82;1.60;;;;;;;27.08;32.87;95222.91;5010221;28;24503;-72
2022/08/14 08:52:54;;;;;;;1.98;1.55;;;;;;;26.98;32.24;95221.50;5004100;28;24474;-72
2022/08/14 08:55:27;;;;;;;2.33;1.50;;;;;;;27.17;32.25;95221.66;5008172;28;24480;-70
2022/08/14 08:57:55;;;;;;;3.22;1.50;;;;;;;27.26;32.45;95215.88;5002505;28;24444;-72
2022/08/14 09:00:21;;;;;;;2.22;1.40;;;;;;;27.34;31.49;95222.78;5001363;28;24441;-72
2022/08/14 09:02:56;;;;;;;1.80;1.37;;;;;;;27.38;31.94;95225.84;5004588;28;24974;-72
2022/08/14 09:05:23;;;;;;;2.00;1.33;;;;;;;27.59;31.17;95222.84;5011613;28;24440;-72
2022/08/14 09:07:50;;;;;;;2.33;1.50;;;;;;;27.80;31.06;95226.19;5012170;28;24499;-72
2022/08/14 09:10:16;;;;;;;4.70;1.67;;;;;;;27.94;30.97;95231.19;5010965;28;24452;-72
2022/08/14 09:12:44;;;;;;;2.08;1.48;;;;;;;27.81;30.78;95225.13;5008211;28;24866;-72
2022/08/14 09:15:11;;;;;;;2.30;1.80;;;;;;;28.02;30.41;95231.94;5010055;28;25231;-72
2022/08/14 09:17:38;;;;;;;1.85;1.40;;;;;;;28.08;30.63;95231.06;5008732;28;24479;-72
2022/08/14 09:20:05;;;;;;;3.30;1.67;;;;;;;28.43;30.69;95226.03;5008861;28;24482;-71
2022/08/14 09:22:32;;;;;;;3.20;1.70;;;;;;;27.91;30.49;95233.47;5006933;28;24437;-72
2022/08/14 09:24:59;;;;;;;3.08;1.48;;;;;;;28.05;31.16;95229.66;5010146;28;24439;-72
2022/08/14 09:27:26;;;;;;;2.17;1.53;;;;;;;27.76;30.66;95222.31;5006030;28;24798;-72
2022/08/14 09:29:53;;;;;;;3.75;1.77;;;;;;;27.87;30.62;95219.78;5006205;28;24441;-72
2022/08/14 09:32:29;;;;;;;4.22;1.67;;;;;;;28.04;30.11;95214.72;5007194;28;24486;-72
2022/08/14 09:35:09;;;;;;;1.92;1.35;;;;;;;28.32;30.38;95208.91;5007686;28;25016;-69
2022/08/14 09:37:48;;;;;;;5.70;2.05;;;;;;;28.23;30.80;95200.41;5008948;28;24506;-72
2022/08/14 09:40:25;;;;;;;2.22;1.40;;;;;;;28.21;30.16;95185.66;5001672;28;24439;-72
2022/08/14 09:43:03;;;;;;;2.13;1.50;;;;;;;28.30;30.76;95180.91;5009401;28;24433;-72
2022/08/14 09:45:38;;;;;;;3.17;1.33;;;;;;;28.35;30.23;95179.19;5006836;28;24476;-71
2022/08/14 09:48:14;;;;;;;3.03;1.50;;;;;;;28.46;29.57;95178.47;5002147;28;24444;-71
2022/08/14 09:50:45;;;;;;;1.73;1.50;;;;;;;28.58;29.65;95183.06;5005866;28;24443;-72
2022/08/14 09:53:16;;;;;;;1.80;1.40;;;;;;;29.04;29.96;95193.19;5009831;28;25166;-72
2022/08/14 09:55:43;;;;;;;3.07;1.60;;;;;;;28.94;28.69;95190.22;4997211;28;24985;-72
2022/08/14 09:58:13;;;;;;;4.70;1.70;;;;;;;29.08;27.71;95189.03;5009263;28;24450;-73
2022/08/14 10:00:46;;;;;;;1.67;1.30;;;;;;;29.05;28.20;95175.34;5008816;28;24437;-72
2022/08/14 10:03:13;;;;;;;3.80;1.55;;;;;;;29.19;28.62;95171.44;5008153;28;25283;-73
2022/08/14 10:05:40;;;;;;;2.28;1.60;;;;;;;29.26;27.78;95166.84;5009372;28;24440;-72
2022/08/14 10:08:18;;;;;;;4.45;1.65;;;;;;;29.20;28.38;95169.59;5008687;28;24531;-72
2022/08/14 10:10:45;;;;;;;2.55;1.45;;;;;;;28.99;27.70;95166.38;5004815;28;24498;-72
2022/08/14 10:13:22;;;;;;;1.52;1.23;;;;;;;28.91;28.39;95164.00;5009561;28;24455;-72
2022/08/14 10:15:51;;;;;;;2.33;1.30;;;;;;;29.16;27.88;95163.91;5003908;28;24495;-72
2022/08/14 10:18:19;;;;;;;3.50;1.30;;;;;;;29.31;26.89;95168.81;5013262;28;24439;-71
2022/08/14 10:20:54;;;;;;;1.70;1.30;;;;;;;28.90;27.55;95170.38;5012287;28;24455;-71
2022/08/14 10:23:22;;;;;;;2.60;1.63;;;;;;;29.41;26.84;95150.41;5013354;28;24893;-72
2022/08/14 10:25:50;;;;;;;2.00;1.40;;;;;;;29.77;26.77;95146.75;5010876;28;24982;-72
2022/08/14 10:28:18;;;;;;;1.95;1.52;;;;;;;29.52;27.17;95138.94;5013041;28;24440;-72
2022/08/14 10:30:47;;;;;;;3.60;1.40;;;;;;;29.27;28.36;95140.97;5012801;28;24473;-72
2022/08/14 10:33:26;;;;;;;3.45;1.40;;;;;;;29.23;27.44;95134.47;5013144;28;24458;-71
2022/08/14 10:35:53;;;;;;;3.10;1.33;;;;;;;29.58;27.07;95132.69;5003321;28;24444;-71
2022/08/14 10:38:31;;;;;;;2.45;1.48;;;;;;;29.41;27.11;95132.53;5012939;28;24444;-71
2022/08/14 10:41:11;;;;;;;2.33;1.70;;;;;;;29.19;28.06;95131.44;5012069;28;24475;-71
2022/08/14 10:43:39;;;;;;;3.30;1.37;;;;;;;28.91;26.79;95124.81;5000825;28;25289;-68
2022/08/14 10:46:13;;;;;;;1.65;1.40;;;;;;;29.17;27.08;95126.34;5011346;28;24447;-71
2022/08/14 10:48:41;;;;;;;1.40;1.20;;;;;;;29.30;26.15;95117.34;5003254;28;24436;-72
2022/08/14 10:51:07;;;;;;;1.90;1.40;;;;;;;29.32;27.59;95098.41;5005871;28;24807;-71
2022/08/14 10:53:36;;;;;;;8.13;1.42;;;;;;;29.07;25.92;95099.44;5011813;28;24512;-72
2022/08/14 10:56:08;;;;;;;1.88;1.55;;;;;;;29.02;26.99;95107.28;5012423;28;24455;-72
2022/08/14 10:58:35;;;;;;;2.03;1.35;;;;;;;29.25;26.42;95106.53;5010437;28;24455;-72
2022/08/14 11:01:04;;;;;;;2.15;1.35;;;;;;;29.37;26.81;95109.22;5012698;28;24494;-72
2022/08/14 11:03:37;;;;;;;3.10;1.38;;;;;;;29.29;26.35;95112.22;5011894;28;24437;-70
2022/08/14 11:06:17;;;;;;;2.50;1.50;;;;;;;29.39;26.72;95131.94;5007648;28;24447;-71
2022/08/14 11:08:44;;;;;;;1.85;1.33;;;;;;;29.34;27.22;95131.03;5007349;28;24436;-72
2022/08/14 11:11:10;;;;;;;4.27;1.47;;;;;;;29.29;26.69;95129.03;5012495;28;24526;-72
2022/08/14 11:13:40;;;;;;;3.60;1.40;;;;;;;29.58;26.61;95126.56;5012416;28;24547;-71
2022/08/14 11:16:06;;;;;;;2.85;1.70;;;;;;;29.97;26.27;95121.59;5005613;28;24444;-71
2022/08/14 11:18:33;;;;;;;2.40;1.50;;;;;;;29.74;25.54;95120.56;5003616;28;24439;-71
2022/08/14 11:21:00;;;;;;;4.93;1.55;;;;;;;30.07;26.44;95122.63;5009827;28;24462;-71
2022/08/14 11:23:30;;;;;;;1.42;1.33;;;;;;;30.03;26.19;95121.44;5009785;28;24526;-72
2022/08/14 11:25:59;;;;;;;2.42;1.40;;;;;;;30.33;25.77;95118.69;5003631;28;24429;-72
2022/08/14 11:28:31;;;;;;;1.50;1.40;;;;;;;30.42;25.23;95115.63;5004986;28;24849;-72
2022/08/14 11:31:00;;;;;;;1.80;1.48;;;;;;;30.29;25.31;95119.34;5020529;28;24440;-71
2022/08/14 11:33:29;;;;;;;1.88;1.40;;;;;;;30.21;24.99;95122.41;5015222;28;24981;-71
2022/08/14 11:35:59;;;;;;;1.33;1.23;;;;;;;29.74;25.64;95115.22;4998825;28;24482;-71
2022/08/14 11:38:28;;;;;;;2.30;1.30;;;;;;;30.06;26.40;95117.50;5011726;28;24567;-72
2022/08/14 11:40:57;;;;;;;2.65;1.52;;;;;;;29.82;25.10;95100.72;5003367;28;24508;-70
2022/08/14 11:43:24;;;;;;;1.70;1.45;;;;;;;29.95;25.91;95103.13;5007031;28;24439;-72
2022/08/14 11:45:51;;;;;;;3.70;1.40;;;;;;;29.89;24.28;95096.06;5008947;28;24456;-72
2022/08/14 11:48:20;;;;;;;3.50;1.40;;;;;;;30.09;25.17;95088.47;5011507;28;24802;-71
2022/08/14 11:50:48;;;;;;;4.45;1.50;;;;;;;29.85;24.31;95087.72;5003356;28;24448;-72
2022/08/14 11:53:20;;;;;;;2.90;1.27;;;;;;;29.89;24.18;95086.19;5008292;28;24448;-72
2022/08/14 11:55:55;;;;;;;1.60;1.20;;;;;;;30.23;23.61;95086.41;5005205;28;24433;-72